Brno, Czech Republic

7:53 PM CEST on July 29, 2016 (GMT +0200)
Turany | | Change Station

Elev 807 ft 49.15 °N, 16.69 °E | Updated 23 minutes ago

Partly Cloudy
Partly Cloudy
77 °F
Feels Like 77 °F
N
10
Wind Variable Wind from NW

Today
High -- | Low -- °F
--% Chance of Precip.
Yesterday
High -- | Low -- °F
Precip. -- in
Pressure 29.92 in
Visibility 6.2 miles
Clouds Few 5700 ft
Dew Point 59 °F
Humidity 54%
Rainfall 0.00 in
Snow Depth Not available.
5:21 AM 8:36 PM
Waning Crescent, 20% visible
METAR LKTB 291730Z 31009KT 280V360 9999 FEW057TCU 25/15 Q1013 NOSIG
Pressure 29.92 in
Visibility 6.2 miles
Clouds Few 5700 ft
Dew Point 59 °F
Humidity 54%
Rainfall 0.00 in
Snow Depth Not available.
5:21 AM 8:36 PM
Waning Crescent, 20% visible
METAR LKTB 291730Z 31009KT 280V360 9999 FEW057TCU 25/15 Q1013 NOSIG

10-Day Weather Forecast

×

Almanac

Astronomy

Jul. 29, 2016 Rise Set
Actual Time
Civil Twilight
Nautical Twilight
Astronomical Twilight
Moon
Length of Visible Light
Length of Day
Tomorrow will be .
, % of the Moon is Illuminated

Today's Extremes

Country Highs Country Lows

Community

WunderPhotos

Upload Photos

1,928,382 photos uploaded!

WunderBlog® & News

Nearby

Air Quality

  Air Quality AQ Index Pollutant
Not available.

Snow Depth

Station Depth Elevation

Earthquake Activity

City Distance Mag. Time & Date
Minimum magnitude displayed is 2.5.

Coastal Water Temperatures

Place Temperature

Stations

Nearby Weather Stations

Station Location Temp. Windchill Dew Point Humidity Wind Precip. Elev Updated Type